Hauptseite
METAR-TAF:

METAR-TAF

Flughäfen :

Flughafen Fuaʻamotu

Tongatapu, Tonga

Breite: 21-14S, Länge: 175-09W, Höhe: 38 m

Beobachtung

Neuester Wetterbericht von vor 22 Minuten, um 01:00 UTC
Wind 11 kt aus Ost/Südost
Temperatur 25°C
Luftfeuchtigkeit 65%
Luftdruck 1018 hPa
Sichtweite 10 km oder mehr
Leicht bewölkt in der Höhe von 1000 ft
Aufgelockert bewölkt in der Höhe von 1700 ft

METAR: NFTF 190100Z 12011KT 9999 FEW010 SCT017 25/18 Q1018

Zeit: 14:22 (01:22 UTC)

Prognose

Neuester Wetterbericht von vor 2 Stunden und 11 Minuten, um 23:11 UTC
Gültige Prognose vom 19 um 00 UTC bis 19 um 24 UTC
Wind 12 kt aus Ost/Südost
Sichtweite 10 km oder mehr
Leicht bewölkt in der Höhe von 900 ft
Aufgelockert bewölkt in der Höhe von 1600 ft

TAF: NFTF 182311Z 1900/1924 11012KT 9999 FEW009 SCT016

Wetterbeobachtungen und Prognosen von mehr als 4000 Flughäfen (METAR und TAF Bericht).

Die verfügbaren Stationen werden durch gelbe und rote Markierungen auf der Karte dargestellt.

Führen Sie die Maus auf sie, um den Namen der Station zu sehen.

Darauf klicken, um die Beobachtung von Wetterbeobachtungen und Prognosen zu sehen.

Um die Karte zu ändern : klicken Sie auf den grünen Tasten mit einem schwarzen Kreuz Zum Vergrößern, auf den grünen Button mit einem Gedankenstrich zu verkleinern, oder auf die grünen Pfeile für benachbarte Karten.


METAR-TAF: